sensor_id;sensor_type;location;lat;lon;timestamp;pressure;altitude;pressure_sealevel;temperature;humidity
44297;BME280;51842;47.450;8.654;2023-04-06T00:02:12;95675.28;;;-0.87;77.82
44297;BME280;51842;47.450;8.654;2023-04-06T00:04:38;95667.00;;;-0.90;78.28
44297;BME280;51842;47.450;8.654;2023-04-06T00:07:04;95672.19;;;-0.97;78.74
44297;BME280;51842;47.450;8.654;2023-04-06T00:09:30;95662.16;;;-0.94;79.21
44297;BME280;51842;47.450;8.654;2023-04-06T00:11:56;95670.59;;;-0.91;78.74
44297;BME280;51842;47.450;8.654;2023-04-06T00:14:23;95668.78;;;-0.91;77.89
44297;BME280;51842;47.450;8.654;2023-04-06T00:16:49;95672.03;;;-0.89;79.71
44297;BME280;51842;47.450;8.654;2023-04-06T00:19:15;95670.22;;;-0.88;79.81
44297;BME280;51842;47.450;8.654;2023-04-06T00:21:41;95660.34;;;-0.93;79.99
44297;BME280;51842;47.450;8.654;2023-04-06T00:24:07;95664.94;;;-0.95;79.46
44297;BME280;51842;47.450;8.654;2023-04-06T00:26:32;95663.72;;;-0.99;79.32
44297;BME280;51842;47.450;8.654;2023-04-06T00:28:58;95657.88;;;-1.01;79.88
44297;BME280;51842;47.450;8.654;2023-04-06T00:31:24;95661.03;;;-1.12;80.63
44297;BME280;51842;47.450;8.654;2023-04-06T00:33:50;95664.97;;;-1.17;81.47
44297;BME280;51842;47.450;8.654;2023-04-06T00:36:17;95661.41;;;-1.15;82.05
44297;BME280;51842;47.450;8.654;2023-04-06T00:38:43;95653.94;;;-1.19;82.61
44297;BME280;51842;47.450;8.654;2023-04-06T00:41:09;95660.13;;;-1.20;82.58
44297;BME280;51842;47.450;8.654;2023-04-06T00:43:35;95643.22;;;-1.24;82.48
44297;BME280;51842;47.450;8.654;2023-04-06T00:46:01;95653.25;;;-1.27;82.72
44297;BME280;51842;47.450;8.654;2023-04-06T00:48:27;95650.59;;;-1.34;82.88
44297;BME280;51842;47.450;8.654;2023-04-06T00:50:53;95647.72;;;-1.39;82.85
44297;BME280;51842;47.450;8.654;2023-04-06T00:53:19;95649.91;;;-1.43;83.35
44297;BME280;51842;47.450;8.654;2023-04-06T00:55:45;95649.66;;;-1.48;83.42
44297;BME280;51842;47.450;8.654;2023-04-06T00:58:11;95642.75;;;-1.55;83.55
44297;BME280;51842;47.450;8.654;2023-04-06T01:00:37;95640.50;;;-1.58;83.10
44297;BME280;51842;47.450;8.654;2023-04-06T01:03:03;95637.91;;;-1.58;83.48
44297;BME280;51842;47.450;8.654;2023-04-06T01:05:35;95635.09;;;-1.57;83.77
44297;BME280;51842;47.450;8.654;2023-04-06T01:08:06;95640.50;;;-1.58;84.25
44297;BME280;51842;47.450;8.654;2023-04-06T01:10:33;95635.03;;;-1.64;84.26
44297;BME280;51842;47.450;8.654;2023-04-06T01:12:59;95636.03;;;-1.65;83.24
44297;BME280;51842;47.450;8.654;2023-04-06T01:15:26;95627.63;;;-1.60;82.89
44297;BME280;51842;47.450;8.654;2023-04-06T01:17:52;95635.47;;;-1.60;82.59
44297;BME280;51842;47.450;8.654;2023-04-06T01:20:18;95627.88;;;-1.55;82.07
44297;BME280;51842;47.450;8.654;2023-04-06T01:22:44;95624.41;;;-1.62;81.45
44297;BME280;51842;47.450;8.654;2023-04-06T01:25:10;95629.06;;;-1.57;81.72
44297;BME280;51842;47.450;8.654;2023-04-06T01:27:36;95624.03;;;-1.59;81.74
44297;BME280;51842;47.450;8.654;2023-04-06T01:30:03;95624.03;;;-1.59;81.69
44297;BME280;51842;47.450;8.654;2023-04-06T01:32:29;95629.44;;;-1.60;82.17
44297;BME280;51842;47.450;8.654;2023-04-06T01:34:55;95627.63;;;-1.60;82.13
44297;BME280;51842;47.450;8.654;2023-04-06T01:37:21;95618.00;;;-1.59;81.66
44297;BME280;51842;47.450;8.654;2023-04-06T01:39:47;95620.78;;;-1.61;80.96
44297;BME280;51842;47.450;8.654;2023-04-06T01:42:13;95621.22;;;-1.57;81.40
44297;BME280;51842;47.450;8.654;2023-04-06T01:44:39;95611.16;;;-1.60;81.86
44297;BME280;51842;47.450;8.654;2023-04-06T01:47:05;95620.78;;;-1.61;81.74
44297;BME280;51842;47.450;8.654;2023-04-06T01:49:31;95617.13;;;-1.67;82.35
44297;BME280;51842;47.450;8.654;2023-04-06T01:51:56;95620.94;;;-1.69;82.41
44297;BME280;51842;47.450;8.654;2023-04-06T01:54:22;95617.69;;;-1.71;81.40
44297;BME280;51842;47.450;8.654;2023-04-06T01:56:48;95613.72;;;-1.67;81.98
44297;BME280;51842;47.450;8.654;2023-04-06T01:59:16;95620.09;;;-1.70;81.76
44297;BME280;51842;47.450;8.654;2023-04-06T02:01:42;95614.81;;;-1.76;81.85
44297;BME280;51842;47.450;8.654;2023-04-06T02:04:07;95614.66;;;-1.75;82.47
44297;BME280;51842;47.450;8.654;2023-04-06T02:06:33;95613.22;;;-1.77;82.30
44297;BME280;51842;47.450;8.654;2023-04-06T02:08:59;95613.22;;;-1.77;82.12
44297;BME280;51842;47.450;8.654;2023-04-06T02:11:25;95608.47;;;-1.89;82.98
44297;BME280;51842;47.450;8.654;2023-04-06T02:13:51;95616.50;;;-1.90;83.09
44297;BME280;51842;47.450;8.654;2023-04-06T02:16:16;95615.28;;;-1.94;83.43
44297;BME280;51842;47.450;8.654;2023-04-06T02:18:42;95614.44;;;-1.95;83.51
44297;BME280;51842;47.450;8.654;2023-04-06T02:21:08;95617.63;;;-1.99;83.57
44297;BME280;51842;47.450;8.654;2023-04-06T02:23:34;95612.78;;;-2.02;83.70
44297;BME280;51842;47.450;8.654;2023-04-06T02:26:00;95615.19;;;-2.01;83.77
44297;BME280;51842;47.450;8.654;2023-04-06T02:28:26;95614.16;;;-2.06;84.23
44297;BME280;51842;47.450;8.654;2023-04-06T02:30:52;95612.06;;;-2.11;84.26
44297;BME280;51842;47.450;8.654;2023-04-06T02:33:17;95616.50;;;-2.12;84.52
44297;BME280;51842;47.450;8.654;2023-04-06T02:35:45;95618.03;;;-2.17;84.44
44297;BME280;51842;47.450;8.654;2023-04-06T02:38:11;95625.31;;;-2.13;83.84
44297;BME280;51842;47.450;8.654;2023-04-06T02:40:37;95617.28;;;-2.11;83.56
44297;BME280;51842;47.450;8.654;2023-04-06T02:43:03;95620.28;;;-2.14;83.53
44297;BME280;51842;47.450;8.654;2023-04-06T02:45:29;95616.22;;;-2.17;83.91
44297;BME280;51842;47.450;8.654;2023-04-06T02:47:54;95609.75;;;-2.21;84.43
44297;BME280;51842;47.450;8.654;2023-04-06T02:50:20;95612.38;;;-2.21;84.17
44297;BME280;51842;47.450;8.654;2023-04-06T02:52:46;95607.78;;;-2.19;84.49
44297;BME280;51842;47.450;8.654;2023-04-06T02:55:12;95612.19;;;-2.19;84.82
44297;BME280;51842;47.450;8.654;2023-04-06T02:57:38;95609.75;;;-2.21;84.40
44297;BME280;51842;47.450;8.654;2023-04-06T03:00:06;95606.72;;;-2.24;84.71
44297;BME280;51842;47.450;8.654;2023-04-06T03:02:32;95601.28;;;-2.23;84.95
44297;BME280;51842;47.450;8.654;2023-04-06T03:04:58;95601.50;;;-2.24;84.79
44297;BME280;51842;47.450;8.654;2023-04-06T03:07:24;95597.19;;;-2.32;85.09
44297;BME280;51842;47.450;8.654;2023-04-06T03:09:50;95603.41;;;-2.33;85.17
44297;BME280;51842;47.450;8.654;2023-04-06T03:12:16;95601.16;;;-2.36;85.43
44297;BME280;51842;47.450;8.654;2023-04-06T03:14:42;95604.41;;;-2.34;85.58
44297;BME280;51842;47.450;8.654;2023-04-06T03:17:07;95603.22;;;-2.31;85.32
44297;BME280;51842;47.450;8.654;2023-04-06T03:19:33;95602.97;;;-2.37;85.63
44297;BME280;51842;47.450;8.654;2023-04-06T03:21:59;95593.91;;;-2.41;85.39
44297;BME280;51842;47.450;8.654;2023-04-06T03:24:25;95595.69;;;-2.41;85.88
44297;BME280;51842;47.450;8.654;2023-04-06T03:26:51;95596.06;;;-2.44;85.78
44297;BME280;51842;47.450;8.654;2023-04-06T03:29:17;95602.00;;;-2.50;86.68
44297;BME280;51842;47.450;8.654;2023-04-06T03:31:43;95600.56;;;-2.53;86.63
44297;BME280;51842;47.450;8.654;2023-04-06T03:34:09;95601.38;;;-2.52;86.79
44297;BME280;51842;47.450;8.654;2023-04-06T03:36:35;95602.63;;;-2.48;86.18
44297;BME280;51842;47.450;8.654;2023-04-06T03:39:02;95611.16;;;-2.54;86.47
44297;BME280;51842;47.450;8.654;2023-04-06T03:41:27;95612.34;;;-2.57;86.71
44297;BME280;51842;47.450;8.654;2023-04-06T03:43:53;95607.47;;;-2.60;86.35
44297;BME280;51842;47.450;8.654;2023-04-06T03:46:19;95604.44;;;-2.64;86.96
44297;BME280;51842;47.450;8.654;2023-04-06T03:48:48;95603.19;;;-2.68;87.07
44297;BME280;51842;47.450;8.654;2023-04-06T03:51:14;95613.81;;;-2.69;87.45
44297;BME280;51842;47.450;8.654;2023-04-06T03:53:40;95613.34;;;-2.73;87.69
44297;BME280;51842;47.450;8.654;2023-04-06T03:56:06;95614.91;;;-2.78;88.01
44297;BME280;51842;47.450;8.654;2023-04-06T03:58:32;95611.00;;;-2.83;88.24
44297;BME280;51842;47.450;8.654;2023-04-06T04:00:58;95619.84;;;-2.84;88.47
44297;BME280;51842;47.450;8.654;2023-04-06T04:03:24;95613.19;;;-2.86;88.81
44297;BME280;51842;47.450;8.654;2023-04-06T04:05:52;95616.13;;;-2.89;88.45
44297;BME280;51842;47.450;8.654;2023-04-06T04:08:18;95609.03;;;-2.95;89.32
44297;BME280;51842;47.450;8.654;2023-04-06T04:10:44;95608.06;;;-2.94;89.39
44297;BME280;51842;47.450;8.654;2023-04-06T04:13:10;95613.44;;;-2.96;88.87
44297;BME280;51842;47.450;8.654;2023-04-06T04:15:36;95609.41;;;-2.98;89.10
44297;BME280;51842;47.450;8.654;2023-04-06T04:18:02;95615.31;;;-3.05;89.41
44297;BME280;51842;47.450;8.654;2023-04-06T04:20:28;95611.75;;;-3.04;89.95
44297;BME280;51842;47.450;8.654;2023-04-06T04:22:54;95608.50;;;-3.06;89.79
44297;BME280;51842;47.450;8.654;2023-04-06T04:25:20;95607.25;;;-3.10;89.87
44297;BME280;51842;47.450;8.654;2023-04-06T04:27:45;95613.06;;;-3.08;90.25
44297;BME280;51842;47.450;8.654;2023-04-06T04:30:11;95614.06;;;-3.09;89.84
44297;BME280;51842;47.450;8.654;2023-04-06T04:32:37;95610.47;;;-3.08;90.56
44297;BME280;51842;47.450;8.654;2023-04-06T04:35:03;95615.50;;;-3.06;90.48
44297;BME280;51842;47.450;8.654;2023-04-06T04:37:29;95621.19;;;-3.03;90.10
44297;BME280;51842;47.450;8.654;2023-04-06T04:39:56;95620.53;;;-3.05;89.86
44297;BME280;51842;47.450;8.654;2023-04-06T04:42:22;95625.13;;;-3.07;90.15
44297;BME280;51842;47.450;8.654;2023-04-06T04:44:48;95622.88;;;-3.10;90.34
44297;BME280;51842;47.450;8.654;2023-04-06T04:47:14;95621.69;;;-3.07;90.20
44297;BME280;51842;47.450;8.654;2023-04-06T04:49:40;95625.31;;;-3.08;90.16
44297;BME280;51842;47.450;8.654;2023-04-06T04:52:05;95627.28;;;-3.10;90.02
44297;BME280;51842;47.450;8.654;2023-04-06T04:54:31;95628.44;;;-3.13;90.67
44297;BME280;51842;47.450;8.654;2023-04-06T04:56:57;95627.28;;;-3.10;90.47
44297;BME280;51842;47.450;8.654;2023-04-06T04:59:23;95637.72;;;-3.10;90.48
44297;BME280;51842;47.450;8.654;2023-04-06T05:01:49;95642.75;;;-3.09;90.68
44297;BME280;51842;47.450;8.654;2023-04-06T05:04:15;95629.91;;;-3.10;90.36
44297;BME280;51842;47.450;8.654;2023-04-06T05:06:41;95633.47;;;-3.11;91.47
44297;BME280;51842;47.450;8.654;2023-04-06T05:09:06;95640.59;;;-3.05;91.03
44297;BME280;51842;47.450;8.654;2023-04-06T05:11:33;95636.97;;;-3.04;90.72
44297;BME280;51842;47.450;8.654;2023-04-06T05:13:59;95628.00;;;-3.02;90.39
44297;BME280;51842;47.450;8.654;2023-04-06T05:16:25;95637.91;;;-2.97;90.43
44297;BME280;51842;47.450;8.654;2023-04-06T05:18:51;95640.97;;;-2.93;90.80
44297;BME280;51842;47.450;8.654;2023-04-06T05:21:19;95651.13;;;-2.84;90.48
44297;BME280;51842;47.450;8.654;2023-04-06T05:23:45;95647.34;;;-2.81;90.46
44297;BME280;51842;47.450;8.654;2023-04-06T05:26:11;95646.78;;;-2.76;90.39
44297;BME280;51842;47.450;8.654;2023-04-06T05:28:37;95648.31;;;-2.67;90.13
44297;BME280;51842;47.450;8.654;2023-04-06T05:31:03;95655.88;;;-2.58;90.18
44297;BME280;51842;47.450;8.654;2023-04-06T05:33:29;95662.25;;;-2.45;89.70
44297;BME280;51842;47.450;8.654;2023-04-06T05:35:55;95661.16;;;-2.36;89.58
44297;BME280;51842;47.450;8.654;2023-04-06T05:38:21;95660.81;;;-2.33;89.23
44297;BME280;51842;47.450;8.654;2023-04-06T05:40:46;95667.47;;;-2.30;89.54
44297;BME280;51842;47.450;8.654;2023-04-06T05:43:12;95658.47;;;-2.28;89.43
44297;BME280;51842;47.450;8.654;2023-04-06T05:45:38;95667.00;;;-2.19;89.17
44297;BME280;51842;47.450;8.654;2023-04-06T05:48:04;95672.91;;;-2.11;88.75
44297;BME280;51842;47.450;8.654;2023-04-06T05:50:30;95674.69;;;-1.96;88.56
44297;BME280;51842;47.450;8.654;2023-04-06T05:52:56;95672.06;;;-1.81;88.19
44297;BME280;51842;47.450;8.654;2023-04-06T05:55:22;95666.75;;;-1.67;87.33
44297;BME280;51842;47.450;8.654;2023-04-06T05:57:48;95671.88;;;-1.37;86.76
44297;BME280;51842;47.450;8.654;2023-04-06T06:00:14;95671.69;;;-1.07;85.96
44297;BME280;51842;47.450;8.654;2023-04-06T06:02:40;95675.13;;;-0.79;85.66
44297;BME280;51842;47.450;8.654;2023-04-06T06:05:09;95668.47;;;-0.47;84.43
44297;BME280;51842;47.450;8.654;2023-04-06T06:07:36;95678.28;;;-0.14;83.28
44297;BME280;51842;47.450;8.654;2023-04-06T06:10:02;95672.97;;;0.21;82.63
44297;BME280;51842;47.450;8.654;2023-04-06T06:12:28;95677.69;;;0.52;79.81
44297;BME280;51842;47.450;8.654;2023-04-06T06:14:54;95674.31;;;0.91;76.63
44297;BME280;51842;47.450;8.654;2023-04-06T06:17:21;95680.34;;;1.32;76.36
44297;BME280;51842;47.450;8.654;2023-04-06T06:19:47;95679.66;;;1.70;74.01
44297;BME280;51842;47.450;8.654;2023-04-06T06:22:13;95682.34;;;2.08;71.77
44297;BME280;51842;47.450;8.654;2023-04-06T06:24:39;95687.09;;;2.31;67.24
44297;BME280;51842;47.450;8.654;2023-04-06T06:27:05;95679.69;;;2.53;66.04
44297;BME280;51842;47.450;8.654;2023-04-06T06:29:31;95690.69;;;2.75;65.12
44297;BME280;51842;47.450;8.654;2023-04-06T06:31:57;95687.88;;;3.01;63.70
44297;BME280;51842;47.450;8.654;2023-04-06T06:34:22;95683.41;;;3.27;62.17
44297;BME280;51842;47.450;8.654;2023-04-06T06:36:48;95678.91;;;3.53;62.31
44297;BME280;51842;47.450;8.654;2023-04-06T06:39:14;95686.69;;;3.84;60.07
44297;BME280;51842;47.450;8.654;2023-04-06T06:41:40;95687.28;;;4.05;60.27
44297;BME280;51842;47.450;8.654;2023-04-06T06:44:06;95685.88;;;4.21;58.68
44297;BME280;51842;47.450;8.654;2023-04-06T06:46:32;95691.19;;;4.32;58.23
44297;BME280;51842;47.450;8.654;2023-04-06T06:48:59;95692.34;;;4.55;57.71
44297;BME280;51842;47.450;8.654;2023-04-06T06:51:25;95685.03;;;4.69;57.67
44297;BME280;51842;47.450;8.654;2023-04-06T06:53:50;95695.59;;;4.99;57.20
44297;BME280;51842;47.450;8.654;2023-04-06T06:56:16;95703.44;;;5.17;56.20
44297;BME280;51842;47.450;8.654;2023-04-06T06:58:42;95698.50;;;5.32;55.49
44297;BME280;51842;47.450;8.654;2023-04-06T07:01:08;95693.69;;;5.53;55.06
44297;BME280;51842;47.450;8.654;2023-04-06T07:03:34;95694.50;;;5.77;53.21
44297;BME280;51842;47.450;8.654;2023-04-06T07:06:00;95686.22;;;5.97;51.57
44297;BME280;51842;47.450;8.654;2023-04-06T07:08:26;95696.97;;;6.19;51.42
44297;BME280;51842;47.450;8.654;2023-04-06T07:10:53;95696.72;;;6.32;50.80
44297;BME280;51842;47.450;8.654;2023-04-06T07:13:22;95700.16;;;6.33;50.56
44297;BME280;51842;47.450;8.654;2023-04-06T07:15:50;95702.84;;;6.61;49.96
44297;BME280;51842;47.450;8.654;2023-04-06T07:18:18;95694.16;;;6.94;49.33
44297;BME280;51842;47.450;8.654;2023-04-06T07:20:44;95701.81;;;7.25;48.17
44297;BME280;51842;47.450;8.654;2023-04-06T07:23:10;95702.38;;;7.44;47.11
44297;BME280;51842;47.450;8.654;2023-04-06T07:25:36;95698.44;;;7.63;46.27
44297;BME280;51842;47.450;8.654;2023-04-06T07:28:04;95700.91;;;7.70;45.20
44297;BME280;51842;47.450;8.654;2023-04-06T07:30:31;95699.09;;;7.92;46.07
44297;BME280;51842;47.450;8.654;2023-04-06T07:32:57;95696.28;;;8.21;44.88
44297;BME280;51842;47.450;8.654;2023-04-06T07:35:27;95694.03;;;8.29;44.16
44297;BME280;51842;47.450;8.654;2023-04-06T07:37:54;95697.81;;;8.55;43.45
44297;BME280;51842;47.450;8.654;2023-04-06T07:40:20;95694.38;;;8.82;43.69
44297;BME280;51842;47.450;8.654;2023-04-06T07:42:46;95690.72;;;8.88;42.88
44297;BME280;51842;47.450;8.654;2023-04-06T07:45:13;95695.81;;;9.22;41.65
44297;BME280;51842;47.450;8.654;2023-04-06T07:47:42;95701.47;;;9.68;42.72
44297;BME280;51842;47.450;8.654;2023-04-06T07:50:09;95694.25;;;10.01;41.72
44297;BME280;51842;47.450;8.654;2023-04-06T07:52:35;95698.41;;;10.29;39.91
44297;BME280;51842;47.450;8.654;2023-04-06T07:55:01;95705.59;;;10.33;39.27
44297;BME280;51842;47.450;8.654;2023-04-06T07:57:27;95707.81;;;10.47;39.31
44297;BME280;51842;47.450;8.654;2023-04-06T07:59:53;95696.16;;;10.63;38.74
44297;BME280;51842;47.450;8.654;2023-04-06T08:02:19;95701.25;;;10.90;37.52
44297;BME280;51842;47.450;8.654;2023-04-06T08:04:45;95699.13;;;10.87;38.24
44297;BME280;51842;47.450;8.654;2023-04-06T08:07:11;95698.13;;;11.14;37.92
44297;BME280;51842;47.450;8.654;2023-04-06T08:09:37;95699.75;;;11.35;36.78
44297;BME280;51842;47.450;8.654;2023-04-06T08:12:04;95704.00;;;11.46;36.98
44297;BME280;51842;47.450;8.654;2023-04-06T08:14:30;95701.59;;;11.45;37.18
44297;BME280;51842;47.450;8.654;2023-04-06T08:16:55;95700.28;;;11.63;37.09
44297;BME280;51842;47.450;8.654;2023-04-06T08:19:21;95690.41;;;11.78;36.46
44297;BME280;51842;47.450;8.654;2023-04-06T08:21:47;95695.72;;;11.94;35.40
44297;BME280;51842;47.450;8.654;2023-04-06T08:24:14;95690.34;;;12.19;35.36
44297;BME280;51842;47.450;8.654;2023-04-06T08:26:41;95690.53;;;12.38;34.97
44297;BME280;51842;47.450;8.654;2023-04-06T08:29:07;95685.38;;;12.57;35.13
44297;BME280;51842;47.450;8.654;2023-04-06T08:31:36;95686.84;;;12.84;35.46
44297;BME280;51842;47.450;8.654;2023-04-06T08:34:04;95687.94;;;12.83;34.45
44297;BME280;51842;47.450;8.654;2023-04-06T08:36:34;95696.41;;;12.95;35.20
44297;BME280;51842;47.450;8.654;2023-04-06T08:39:01;95691.63;;;12.92;33.33
44297;BME280;51842;47.450;8.654;2023-04-06T08:41:28;95695.34;;;12.91;33.33
44297;BME280;51842;47.450;8.654;2023-04-06T08:44:01;95701.78;;;12.85;34.12
44297;BME280;51842;47.450;8.654;2023-04-06T08:46:29;95692.72;;;12.86;33.97
44297;BME280;51842;47.450;8.654;2023-04-06T08:49:02;95701.22;;;13.37;33.05
44297;BME280;51842;47.450;8.654;2023-04-06T08:51:30;95701.13;;;13.53;33.09
44297;BME280;51842;47.450;8.654;2023-04-06T08:53:59;95695.69;;;13.29;33.22
44297;BME280;51842;47.450;8.654;2023-04-06T08:56:28;95691.72;;;13.55;33.42
44297;BME280;51842;47.450;8.654;2023-04-06T08:58:56;95691.94;;;13.30;33.46
44297;BME280;51842;47.450;8.654;2023-04-06T09:01:26;95695.25;;;13.51;33.37
44297;BME280;51842;47.450;8.654;2023-04-06T09:03:59;95691.22;;;13.53;33.88
44297;BME280;51842;47.450;8.654;2023-04-06T09:06:28;95697.22;;;13.69;33.11
44297;BME280;51842;47.450;8.654;2023-04-06T09:08:54;95691.19;;;13.87;33.95
44297;BME280;51842;47.450;8.654;2023-04-06T09:11:21;95685.13;;;14.30;33.09
44297;BME280;51842;47.450;8.654;2023-04-06T09:13:53;95693.78;;;14.46;31.73
44297;BME280;51842;47.450;8.654;2023-04-06T09:16:21;95690.97;;;14.61;31.55
44297;BME280;51842;47.450;8.654;2023-04-06T09:18:48;95682.16;;;14.79;32.00
44297;BME280;51842;47.450;8.654;2023-04-06T09:21:18;95679.16;;;15.00;31.49
44297;BME280;51842;47.450;8.654;2023-04-06T09:23:45;95685.31;;;15.19;30.52
44297;BME280;51842;47.450;8.654;2023-04-06T09:26:16;95682.94;;;15.18;30.04
44297;BME280;51842;47.450;8.654;2023-04-06T09:28:57;95684.75;;;15.03;29.87
44297;BME280;51842;47.450;8.654;2023-04-06T09:31:31;95680.69;;;14.87;30.44
44297;BME280;51842;47.450;8.654;2023-04-06T09:34:00;95681.06;;;15.18;29.81
44297;BME280;51842;47.450;8.654;2023-04-06T09:36:36;95673.91;;;15.46;28.78
44297;BME280;51842;47.450;8.654;2023-04-06T09:39:06;95674.53;;;15.06;30.07
44297;BME280;51842;47.450;8.654;2023-04-06T09:41:35;95676.28;;;14.53;29.80
44297;BME280;51842;47.450;8.654;2023-04-06T09:44:12;95671.50;;;14.93;30.17
44297;BME280;51842;47.450;8.654;2023-04-06T09:46:44;95676.34;;;15.62;30.22
44297;BME280;51842;47.450;8.654;2023-04-06T09:49:13;95677.16;;;15.95;29.07
44297;BME280;51842;47.450;8.654;2023-04-06T09:52:07;95663.94;;;15.66;28.82
44297;BME280;51842;47.450;8.654;2023-04-06T09:54:35;95667.41;;;15.66;29.43
44297;BME280;51842;47.450;8.654;2023-04-06T09:57:19;95669.72;;;15.92;29.55
44297;BME280;51842;47.450;8.654;2023-04-06T10:00:03;95666.72;;;16.07;28.60
44297;BME280;51842;47.450;8.654;2023-04-06T10:05:22;95656.38;;;16.28;27.48
44297;BME280;51842;47.450;8.654;2023-04-06T10:07:59;95661.47;;;16.16;28.06
44297;BME280;51842;47.450;8.654;2023-04-06T10:10:28;95664.22;;;16.66;26.28
44297;BME280;51842;47.450;8.654;2023-04-06T10:12:55;95661.16;;;16.86;27.14
44297;BME280;51842;47.450;8.654;2023-04-06T10:15:22;95665.72;;;16.72;26.29
44297;BME280;51842;47.450;8.654;2023-04-06T10:17:48;95668.34;;;16.36;26.28
44297;BME280;51842;47.450;8.654;2023-04-06T10:23:24;95653.00;;;16.78;25.57
44297;BME280;51842;47.450;8.654;2023-04-06T10:25:56;95662.13;;;16.63;26.10
44297;BME280;51842;47.450;8.654;2023-04-06T10:28:23;95659.66;;;16.66;25.86
44297;BME280;51842;47.450;8.654;2023-04-06T10:31:02;95655.69;;;16.64;26.69
44297;BME280;51842;47.450;8.654;2023-04-06T10:33:29;95660.66;;;16.71;25.43
44297;BME280;51842;47.450;8.654;2023-04-06T10:35:56;95665.22;;;16.70;26.55
44297;BME280;51842;47.450;8.654;2023-04-06T10:38:36;95666.94;;;16.80;26.13
44297;BME280;51842;47.450;8.654;2023-04-06T10:41:12;95666.91;;;17.30;24.98
44297;BME280;51842;47.450;8.654;2023-04-06T10:43:41;95660.41;;;17.31;25.77
44297;BME280;51842;47.450;8.654;2023-04-06T10:46:09;95661.03;;;17.50;24.96
44297;BME280;51842;47.450;8.654;2023-04-06T10:48:45;95654.03;;;17.72;24.40
44297;BME280;51842;47.450;8.654;2023-04-06T10:51:18;95661.88;;;17.60;24.91
44297;BME280;51842;47.450;8.654;2023-04-06T10:53:48;95661.63;;;17.70;24.50
44297;BME280;51842;47.450;8.654;2023-04-06T10:56:22;95650.25;;;17.50;24.82
44297;BME280;51842;47.450;8.654;2023-04-06T10:58:53;95661.38;;;17.35;25.04
44297;BME280;51842;47.450;8.654;2023-04-06T11:01:24;95657.53;;;17.50;24.50
44297;BME280;51842;47.450;8.654;2023-04-06T11:03:57;95660.47;;;17.62;24.81
44297;BME280;51842;47.450;8.654;2023-04-06T11:06:29;95661.31;;;17.94;24.39
44297;BME280;51842;47.450;8.654;2023-04-06T11:08:58;95656.09;;;17.97;25.03
44297;BME280;51842;47.450;8.654;2023-04-06T11:11:26;95660.13;;;18.09;23.78
44297;BME280;51842;47.450;8.654;2023-04-06T11:13:59;95646.22;;;18.15;23.74
44297;BME280;51842;47.450;8.654;2023-04-06T11:16:33;95639.97;;;18.06;23.19
44297;BME280;51842;47.450;8.654;2023-04-06T11:19:05;95641.72;;;18.02;23.92
44297;BME280;51842;47.450;8.654;2023-04-06T11:21:46;95638.06;;;18.07;23.53
44297;BME280;51842;47.450;8.654;2023-04-06T11:24:24;95640.31;;;18.13;24.21
44297;BME280;51842;47.450;8.654;2023-04-06T11:26:56;95640.16;;;18.10;23.75
44297;BME280;51842;47.450;8.654;2023-04-06T11:29:30;95631.84;;;18.37;23.36
44297;BME280;51842;47.450;8.654;2023-04-06T11:32:04;95622.16;;;18.27;24.63
44297;BME280;51842;47.450;8.654;2023-04-06T11:34:36;95623.28;;;18.35;24.07
44297;BME280;51842;47.450;8.654;2023-04-06T11:37:08;95621.91;;;18.07;23.62
44297;BME280;51842;47.450;8.654;2023-04-06T11:39:49;95623.44;;;18.39;24.12
44297;BME280;51842;47.450;8.654;2023-04-06T11:42:28;95619.22;;;18.64;22.56
44297;BME280;51842;47.450;8.654;2023-04-06T11:44:57;95629.59;;;18.88;23.88
44297;BME280;51842;47.450;8.654;2023-04-06T11:47:35;95633.47;;;18.07;22.59
44297;BME280;51842;47.450;8.654;2023-04-06T11:50:13;95626.09;;;18.21;22.92
44297;BME280;51842;47.450;8.654;2023-04-06T11:52:41;95621.41;;;18.53;22.70
44297;BME280;51842;47.450;8.654;2023-04-06T11:55:18;95624.34;;;18.25;23.84
44297;BME280;51842;47.450;8.654;2023-04-06T11:57:44;95616.88;;;17.60;23.23
44297;BME280;51842;47.450;8.654;2023-04-06T12:00:12;95613.69;;;18.12;24.27
44297;BME280;51842;47.450;8.654;2023-04-06T12:02:39;95609.72;;;17.78;21.82
44297;BME280;51842;47.450;8.654;2023-04-06T12:05:06;95608.50;;;18.24;21.83
44297;BME280;51842;47.450;8.654;2023-04-06T12:07:33;95609.50;;;17.97;23.75
44297;BME280;51842;47.450;8.654;2023-04-06T12:10:03;95606.59;;;18.33;23.67
44297;BME280;51842;47.450;8.654;2023-04-06T12:12:29;95601.75;;;18.70;23.04
44297;BME280;51842;47.450;8.654;2023-04-06T12:14:56;95605.16;;;18.76;22.77
44297;BME280;51842;47.450;8.654;2023-04-06T12:17:22;95607.53;;;18.94;23.26
44297;BME280;51842;47.450;8.654;2023-04-06T12:19:48;95601.81;;;19.22;20.68
44297;BME280;51842;47.450;8.654;2023-04-06T12:22:15;95600.72;;;18.97;21.87
44297;BME280;51842;47.450;8.654;2023-04-06T12:24:41;95598.31;;;18.78;22.19
44297;BME280;51842;47.450;8.654;2023-04-06T12:27:07;95594.97;;;18.72;20.76
44297;BME280;51842;47.450;8.654;2023-04-06T12:29:34;95588.09;;;18.49;20.51
44297;BME280;51842;47.450;8.654;2023-04-06T12:32:00;95594.00;;;18.68;21.41
44297;BME280;51842;47.450;8.654;2023-04-06T12:34:27;95592.91;;;18.95;21.00
44297;BME280;51842;47.450;8.654;2023-04-06T12:36:53;95589.75;;;19.28;21.11
44297;BME280;51842;47.450;8.654;2023-04-06T12:39:19;95588.47;;;19.08;21.35
44297;BME280;51842;47.450;8.654;2023-04-06T12:41:46;95583.66;;;18.53;22.75
44297;BME280;51842;47.450;8.654;2023-04-06T12:44:11;95588.75;;;18.72;21.89
44297;BME280;51842;47.450;8.654;2023-04-06T12:46:37;95576.59;;;18.75;20.83
44297;BME280;51842;47.450;8.654;2023-04-06T12:49:03;95577.22;;;18.89;22.06
44297;BME280;51842;47.450;8.654;2023-04-06T12:51:30;95585.28;;;18.80;21.68
44297;BME280;51842;47.450;8.654;2023-04-06T12:53:57;95583.97;;;18.60;21.58
44297;BME280;51842;47.450;8.654;2023-04-06T12:56:23;95573.47;;;18.41;21.62
44297;BME280;51842;47.450;8.654;2023-04-06T12:58:51;95576.88;;;18.73;21.15
44297;BME280;51842;47.450;8.654;2023-04-06T13:01:18;95570.53;;;18.95;20.84
44297;BME280;51842;47.450;8.654;2023-04-06T13:03:44;95567.69;;;19.00;22.08
44297;BME280;51842;47.450;8.654;2023-04-06T13:06:10;95570.81;;;18.67;20.95
44297;BME280;51842;47.450;8.654;2023-04-06T13:08:38;95567.03;;;19.21;20.91
44297;BME280;51842;47.450;8.654;2023-04-06T13:11:05;95564.03;;;19.22;21.70